createdAt,value
2018-12-19T00:01:58.345Z,95.10
2018-12-19T00:04:28.029Z,95.10
2018-12-19T00:06:57.550Z,94.80
2018-12-19T00:09:26.793Z,94.90
2018-12-19T00:11:56.445Z,94.40
2018-12-19T00:14:25.821Z,94.70
2018-12-19T00:16:55.174Z,94.80
2018-12-19T00:19:24.457Z,94.30
2018-12-19T00:21:53.733Z,94.60
2018-12-19T00:24:23.170Z,94.60
2018-12-19T00:26:52.510Z,94.20
2018-12-19T00:29:22.613Z,94.10
2018-12-19T00:31:51.948Z,93.80
2018-12-19T00:34:21.350Z,94.70
2018-12-19T00:36:50.829Z,93.90
2018-12-19T00:39:20.073Z,93.70
2018-12-19T00:41:49.657Z,93.60
2018-12-19T00:44:19.092Z,93.50
2018-12-19T00:46:48.378Z,93.60
2018-12-19T00:49:17.788Z,93.40
2018-12-19T00:51:47.820Z,93.50
2018-12-19T00:54:16.983Z,93.60
2018-12-19T00:56:46.480Z,93.60
2018-12-19T00:59:15.808Z,93.80
2018-12-19T01:01:45.425Z,94.40
2018-12-19T01:04:14.742Z,94.00
2018-12-19T01:06:44.242Z,94.00
2018-12-19T01:09:16.052Z,93.70
2018-12-19T01:11:45.061Z,93.60
2018-12-19T01:14:14.977Z,93.50
2018-12-19T01:16:44.271Z,93.60
2018-12-19T01:19:14.204Z,93.70
2018-12-19T01:21:43.603Z,93.70
2018-12-19T01:24:13.202Z,93.90
2018-12-19T01:26:42.787Z,93.60
2018-12-19T01:29:12.099Z,93.30
2018-12-19T01:31:41.481Z,93.40
2018-12-19T01:34:10.801Z,93.60
2018-12-19T01:36:39.983Z,93.80
2018-12-19T01:39:09.560Z,93.40
2018-12-19T01:41:38.936Z,93.50
2018-12-19T01:44:08.316Z,93.70
2018-12-19T01:46:38.226Z,93.50
2018-12-19T01:49:07.565Z,93.50
2018-12-19T01:51:37.263Z,93.90
2018-12-19T01:54:06.762Z,93.70
2018-12-19T01:56:35.928Z,94.20
2018-12-19T01:59:05.585Z,94.10
2018-12-19T02:01:34.716Z,94.60
2018-12-19T02:04:04.797Z,94.10
2018-12-19T02:06:34.286Z,94.20
2018-12-19T02:09:03.901Z,94.20
2018-12-19T02:11:33.257Z,94.10
2018-12-19T02:14:02.682Z,93.60
2018-12-19T02:16:32.341Z,93.10
2018-12-19T02:19:01.832Z,93.00
2018-12-19T02:21:31.505Z,93.20
2018-12-19T02:24:00.879Z,93.30
2018-12-19T02:26:30.286Z,93.60
2018-12-19T02:28:59.934Z,93.50
2018-12-19T02:31:29.633Z,93.20
2018-12-19T02:33:59.149Z,93.00
2018-12-19T02:36:28.608Z,92.80
2018-12-19T02:38:58.542Z,92.90
2018-12-19T02:41:27.708Z,93.30
2018-12-19T02:43:57.295Z,93.20
2018-12-19T02:46:26.819Z,93.20
2018-12-19T02:48:56.452Z,93.50
2018-12-19T02:51:25.918Z,93.70
2018-12-19T02:53:55.391Z,93.40
2018-12-19T02:56:25.228Z,93.60
2018-12-19T02:58:54.669Z,93.60
2018-12-19T03:01:24.036Z,93.30
2018-12-19T03:03:53.311Z,93.60
2018-12-19T03:06:23.125Z,93.50
2018-12-19T03:08:52.459Z,93.30
2018-12-19T03:11:22.568Z,93.90
2018-12-19T03:13:55.958Z,93.10
2018-12-19T03:16:26.272Z,93.30
2018-12-19T03:18:55.904Z,93.00
2018-12-19T03:21:25.850Z,93.40
2018-12-19T03:23:55.819Z,93.40
2018-12-19T03:26:25.000Z,93.40
2018-12-19T03:28:54.489Z,93.30
2018-12-19T03:31:23.652Z,93.20
2018-12-19T03:33:53.703Z,93.20
2018-12-19T03:36:22.841Z,93.20
2018-12-19T03:38:52.404Z,93.60
2018-12-19T03:41:22.327Z,93.50
2018-12-19T03:43:52.849Z,93.40
2018-12-19T03:46:22.242Z,93.40
2018-12-19T03:48:57.683Z,93.50
2018-12-19T03:51:27.144Z,93.50
2018-12-19T03:53:56.664Z,93.30
2018-12-19T03:56:26.439Z,93.20
2018-12-19T03:58:57.094Z,93.00
2018-12-19T04:01:26.546Z,92.90
2018-12-19T04:03:55.884Z,92.60
2018-12-19T04:06:25.305Z,92.80
2018-12-19T04:08:54.983Z,93.30
2018-12-19T04:11:24.493Z,93.10
2018-12-19T04:13:54.030Z,93.30
2018-12-19T04:16:23.615Z,93.20
2018-12-19T04:18:53.001Z,93.20
2018-12-19T04:21:22.636Z,93.40
2018-12-19T04:23:52.804Z,93.40
2018-12-19T04:26:22.878Z,93.40
2018-12-19T04:28:52.147Z,93.30
2018-12-19T04:31:21.394Z,93.30
2018-12-19T04:33:50.925Z,93.10
2018-12-19T04:36:20.355Z,93.20
2018-12-19T04:38:50.054Z,93.10
2018-12-19T04:41:19.665Z,93.40
2018-12-19T04:43:49.224Z,93.10
2018-12-19T04:46:18.666Z,93.50
2018-12-19T04:48:47.945Z,93.50
2018-12-19T04:51:18.166Z,93.40
2018-12-19T04:53:47.500Z,93.00
2018-12-19T04:56:16.669Z,93.20
2018-12-19T04:58:45.970Z,93.40
2018-12-19T05:01:15.541Z,93.00
2018-12-19T05:03:45.060Z,93.40
2018-12-19T05:06:14.706Z,93.20
2018-12-19T05:08:44.005Z,93.20
2018-12-19T05:11:14.045Z,93.40
2018-12-19T05:13:44.142Z,93.40
2018-12-19T05:16:13.652Z,93.20
2018-12-19T05:18:43.247Z,93.70
2018-12-19T05:21:12.860Z,93.50
2018-12-19T05:23:42.312Z,93.40
2018-12-19T05:26:11.833Z,93.40
2018-12-19T05:28:41.426Z,93.50
2018-12-19T05:31:11.067Z,93.40
2018-12-19T05:33:40.537Z,93.50
2018-12-19T05:36:10.866Z,93.50
2018-12-19T05:38:40.153Z,93.50
2018-12-19T05:41:10.390Z,93.60
2018-12-19T05:43:39.793Z,93.70
2018-12-19T05:46:09.257Z,93.50
2018-12-19T05:48:38.656Z,93.40
2018-12-19T05:51:08.354Z,93.50
2018-12-19T05:53:38.349Z,93.60
2018-12-19T05:56:08.856Z,93.50
2018-12-19T05:58:38.009Z,93.60
2018-12-19T06:01:07.508Z,93.60
2018-12-19T06:03:36.933Z,93.60
2018-12-19T06:06:06.554Z,93.70
2018-12-19T06:08:35.889Z,93.60
2018-12-19T06:11:05.276Z,93.60
2018-12-19T06:13:34.461Z,93.70
2018-12-19T06:16:04.331Z,94.10
2018-12-19T06:18:34.561Z,94.20
2018-12-19T06:21:03.844Z,93.70
2018-12-19T06:23:33.183Z,93.60
2018-12-19T06:26:03.109Z,93.60
2018-12-19T06:28:33.194Z,93.70
2018-12-19T06:31:03.029Z,93.80
2018-12-19T06:33:32.295Z,93.70
2018-12-19T06:36:02.350Z,93.70
2018-12-19T06:38:31.521Z,93.70
2018-12-19T06:41:00.935Z,93.60
2018-12-19T06:43:30.997Z,93.70
2018-12-19T06:46:00.280Z,93.70
2018-12-19T06:48:29.345Z,93.70
2018-12-19T06:50:59.394Z,93.40
2018-12-19T06:53:28.784Z,93.40
2018-12-19T06:55:58.297Z,93.40
2018-12-19T06:58:27.664Z,93.40
2018-12-19T07:00:57.021Z,93.40
2018-12-19T07:03:26.988Z,93.20
2018-12-19T07:05:56.425Z,93.40
2018-12-19T07:08:26.226Z,93.40
2018-12-19T07:10:55.758Z,93.20
2018-12-19T07:13:25.259Z,93.40
2018-12-19T07:15:54.797Z,93.50
2018-12-19T07:18:24.131Z,93.60
2018-12-19T07:20:54.095Z,93.40
2018-12-19T07:23:24.713Z,93.30
2018-12-19T07:25:54.526Z,93.40
2018-12-19T07:28:23.886Z,93.10
2018-12-19T07:30:53.150Z,93.40
2018-12-19T07:33:22.608Z,93.40
2018-12-19T07:35:52.133Z,93.50
2018-12-19T07:38:21.602Z,93.20
2018-12-19T07:40:50.870Z,93.20
2018-12-19T07:43:20.343Z,92.90
2018-12-19T07:45:49.698Z,93.40
2018-12-19T07:48:19.580Z,93.60
2018-12-19T07:50:48.759Z,93.60
2018-12-19T07:53:18.361Z,93.20
2018-12-19T07:55:48.163Z,93.20
2018-12-19T07:58:17.419Z,93.40
2018-12-19T08:00:46.886Z,93.60
2018-12-19T08:03:16.375Z,93.30
2018-12-19T08:05:46.074Z,93.40
2018-12-19T08:08:16.461Z,93.60
2018-12-19T08:10:51.997Z,93.50
2018-12-19T08:13:17.179Z,93.30
2018-12-19T08:15:47.001Z,93.40
2018-12-19T08:18:16.364Z,93.00
2018-12-19T08:20:45.692Z,93.00
2018-12-19T08:23:15.832Z,93.10
2018-12-19T08:25:45.027Z,93.40
2018-12-19T08:28:14.515Z,93.10
2018-12-19T08:30:43.799Z,93.30
2018-12-19T08:33:13.074Z,93.30
2018-12-19T08:35:43.012Z,93.30
2018-12-19T08:38:12.605Z,93.10
2018-12-19T08:40:42.042Z,93.30
2018-12-19T08:43:11.609Z,93.10
2018-12-19T08:45:42.302Z,93.20
2018-12-19T08:48:11.788Z,93.20
2018-12-19T08:50:41.230Z,92.90
2018-12-19T08:53:10.947Z,93.20
2018-12-19T08:55:40.724Z,93.10
2018-12-19T08:58:10.525Z,93.20
2018-12-19T09:00:40.688Z,93.30
2018-12-19T09:03:10.101Z,93.30
2018-12-19T09:05:39.784Z,93.20
2018-12-19T09:08:09.259Z,93.30
2018-12-19T09:10:41.041Z,93.30
2018-12-19T09:13:11.185Z,93.40
2018-12-19T09:15:45.935Z,93.30
2018-12-19T09:18:15.271Z,93.10
2018-12-19T09:20:45.845Z,92.80
2018-12-19T09:23:16.532Z,92.90
2018-12-19T09:25:45.930Z,93.00
2018-12-19T09:28:15.992Z,92.90
2018-12-19T09:30:46.030Z,93.30
2018-12-19T09:33:15.442Z,92.90
2018-12-19T09:35:46.069Z,93.00
2018-12-19T09:38:15.615Z,92.90
2018-12-19T09:40:45.173Z,93.00
2018-12-19T09:43:14.621Z,92.90
2018-12-19T09:45:44.340Z,92.90
2018-12-19T09:48:13.924Z,92.70
2018-12-19T09:50:43.321Z,92.90
2018-12-19T09:53:12.729Z,92.90
2018-12-19T09:55:42.601Z,93.20
2018-12-19T09:58:11.843Z,93.20
2018-12-19T10:00:41.350Z,93.00
2018-12-19T10:03:10.912Z,93.30
2018-12-19T10:05:40.439Z,93.20
2018-12-19T10:08:09.748Z,93.00
2018-12-19T10:10:39.462Z,93.00
2018-12-19T10:13:08.962Z,93.00
2018-12-19T10:15:38.375Z,93.00
2018-12-19T10:18:09.197Z,93.00
2018-12-19T10:20:38.793Z,92.80
2018-12-19T10:23:08.326Z,92.80
2018-12-19T10:25:37.842Z,92.80
2018-12-19T10:28:07.404Z,93.00
2018-12-19T10:30:41.881Z,93.00
2018-12-19T10:33:11.434Z,92.90
2018-12-19T10:35:40.785Z,92.80
2018-12-19T10:38:10.038Z,93.00
2018-12-19T10:40:39.793Z,93.00
2018-12-19T10:43:09.145Z,92.80
2018-12-19T10:45:39.079Z,93.00
2018-12-19T10:48:08.586Z,92.60
2018-12-19T10:50:38.061Z,92.60
2018-12-19T10:53:08.105Z,92.70
2018-12-19T10:55:37.607Z,92.70
2018-12-19T10:58:07.328Z,92.50
2018-12-19T11:00:42.132Z,92.50
2018-12-19T11:03:11.797Z,92.50
2018-12-19T11:05:41.309Z,92.50
2018-12-19T11:08:10.574Z,92.50
2018-12-19T11:10:39.981Z,92.30
2018-12-19T11:13:10.024Z,92.10
2018-12-19T11:15:39.524Z,92.20
2018-12-19T11:18:09.148Z,92.30
2018-12-19T11:20:38.682Z,92.30
2018-12-19T11:23:08.171Z,92.20
2018-12-19T11:25:37.635Z,92.30
2018-12-19T11:28:06.777Z,92.40
2018-12-19T11:30:36.684Z,92.10
2018-12-19T11:33:06.252Z,92.20
2018-12-19T11:35:36.739Z,91.90
2018-12-19T11:38:06.244Z,92.10
2018-12-19T11:40:35.831Z,91.90
2018-12-19T11:43:05.212Z,91.50
2018-12-19T11:45:34.918Z,91.10
2018-12-19T11:48:04.562Z,91.10
2018-12-19T11:50:33.848Z,91.10
2018-12-19T11:53:03.320Z,91.00
2018-12-19T11:55:33.014Z,90.70
2018-12-19T12:27:08.199Z,87.50
2018-12-19T12:29:37.549Z,88.00
2018-12-19T12:32:07.258Z,88.30
2018-12-19T12:34:36.492Z,89.10
2018-12-19T12:37:07.377Z,89.00
2018-12-19T12:39:37.300Z,89.20
2018-12-19T12:42:07.469Z,89.60
2018-12-19T12:44:38.135Z,89.50
2018-12-19T12:47:07.527Z,89.50
2018-12-19T12:49:36.854Z,88.80
2018-12-19T12:52:05.966Z,89.60
2018-12-19T12:54:35.402Z,89.60
2018-12-19T12:57:06.029Z,89.50
2018-12-19T12:59:36.450Z,88.70
2018-12-19T13:02:05.990Z,88.30
2018-12-19T13:04:35.337Z,88.70
2018-12-19T13:07:04.898Z,89.40
2018-12-19T13:09:34.383Z,89.10
2018-12-19T13:12:03.713Z,89.20
2018-12-19T13:14:33.439Z,89.70
2018-12-19T13:17:02.969Z,89.50
2018-12-19T13:19:33.520Z,89.20
2018-12-19T13:22:03.367Z,89.20
2018-12-19T13:24:33.070Z,89.00
2018-12-19T13:27:02.344Z,89.10
2018-12-19T13:29:31.658Z,90.00
2018-12-19T13:32:01.853Z,90.00
2018-12-19T13:34:31.552Z,90.20
2018-12-19T13:37:01.721Z,90.40
2018-12-19T13:39:31.194Z,90.10
2018-12-19T13:42:05.614Z,90.40
2018-12-19T13:44:31.993Z,90.40
2018-12-19T13:47:01.806Z,90.40
2018-12-19T13:49:31.117Z,90.30
2018-12-19T13:52:00.465Z,90.40
2018-12-19T13:54:30.394Z,89.60
2018-12-19T13:56:59.900Z,89.80
2018-12-19T13:59:29.428Z,89.80
2018-12-19T14:01:58.872Z,90.00
2018-12-19T14:04:29.680Z,89.40
2018-12-19T14:06:59.652Z,90.20
2018-12-19T14:09:30.579Z,90.20
2018-12-19T14:12:00.072Z,90.50
2018-12-19T14:14:29.596Z,90.20
2018-12-19T14:16:59.053Z,90.30
2018-12-19T14:19:28.637Z,90.30
2018-12-19T14:21:58.289Z,90.30
2018-12-19T14:24:27.754Z,90.50
2018-12-19T14:26:57.251Z,90.30
2018-12-19T14:29:26.751Z,90.40
2018-12-19T14:31:56.591Z,90.60
2018-12-19T14:34:25.937Z,90.70
2018-12-19T14:36:55.387Z,90.60
2018-12-19T14:39:25.141Z,91.10
2018-12-19T14:41:54.648Z,90.80
2018-12-19T14:44:24.157Z,90.90
2018-12-19T14:46:53.715Z,90.70
2018-12-19T14:49:23.159Z,90.70
2018-12-19T14:51:52.379Z,90.80
2018-12-19T14:54:22.542Z,90.80
2018-12-19T14:56:51.890Z,91.00
2018-12-19T14:59:21.379Z,91.00
2018-12-19T15:01:50.792Z,91.20
2018-12-19T15:04:20.146Z,91.20
2018-12-19T15:06:50.511Z,91.30
2018-12-19T15:09:20.149Z,91.40
2018-12-19T15:11:50.266Z,91.50
2018-12-19T15:14:19.822Z,91.10
2018-12-19T15:16:49.415Z,90.90
2018-12-19T15:19:19.597Z,91.10
2018-12-19T15:21:49.064Z,91.40
2018-12-19T15:24:18.654Z,91.60
2018-12-19T15:26:48.988Z,91.50
2018-12-19T15:29:18.685Z,91.50
2018-12-19T15:31:48.101Z,91.60
2018-12-19T15:34:18.683Z,91.90
2018-12-19T15:36:48.435Z,91.80
2018-12-19T15:39:17.934Z,91.90
2018-12-19T15:41:47.746Z,92.00
2018-12-19T15:44:16.887Z,92.00
2018-12-19T15:46:46.473Z,92.00
2018-12-19T15:49:16.126Z,91.80
2018-12-19T15:51:46.481Z,91.80
2018-12-19T15:54:15.642Z,92.00
2018-12-19T15:56:46.080Z,92.00
2018-12-19T15:59:15.800Z,91.90
2018-12-19T16:01:45.074Z,91.90
2018-12-19T16:04:14.888Z,92.10
2018-12-19T16:06:44.677Z,92.30
2018-12-19T16:09:14.087Z,92.20
2018-12-19T16:11:43.502Z,91.80
2018-12-19T16:14:13.284Z,92.00
2018-12-19T16:16:42.633Z,92.30
2018-12-19T16:19:12.089Z,92.30
2018-12-19T16:21:41.716Z,92.40
2018-12-19T16:24:11.222Z,92.50
2018-12-19T16:26:40.813Z,92.70
2018-12-19T16:29:11.385Z,92.90
2018-12-19T16:31:40.991Z,92.90
2018-12-19T16:34:10.471Z,92.90
2018-12-19T16:36:40.208Z,92.90
2018-12-19T16:39:10.329Z,92.50
2018-12-19T16:41:39.524Z,92.60
2018-12-19T16:44:09.243Z,92.70
2018-12-19T16:46:38.636Z,92.80
2018-12-19T16:49:08.224Z,92.90
2018-12-19T16:51:37.669Z,93.20
2018-12-19T16:54:07.229Z,92.90
2018-12-19T16:56:36.552Z,93.00
2018-12-19T16:59:05.884Z,93.00
2018-12-19T17:01:35.192Z,92.80
2018-12-19T17:04:04.447Z,93.00
2018-12-19T17:06:33.993Z,93.10
2018-12-19T17:09:03.605Z,93.30
2018-12-19T17:11:33.687Z,93.40
2018-12-19T17:14:02.856Z,94.00
2018-12-19T17:16:32.692Z,93.70
2018-12-19T17:19:02.030Z,93.70
2018-12-19T17:21:31.906Z,93.80
2018-12-19T17:24:01.152Z,93.80
2018-12-19T17:26:30.456Z,94.00
2018-12-19T17:29:00.495Z,94.10
2018-12-19T17:31:29.862Z,93.90
2018-12-19T17:34:02.431Z,94.30
2018-12-19T17:36:32.438Z,94.30
2018-12-19T17:39:01.548Z,94.10
2018-12-19T17:41:30.749Z,94.60
2018-12-19T17:44:00.025Z,94.50
2018-12-19T17:46:29.528Z,94.60
2018-12-19T17:48:59.773Z,94.40
2018-12-19T17:51:30.066Z,93.70
2018-12-19T17:53:59.565Z,94.30
2018-12-19T17:56:29.060Z,94.30
2018-12-19T17:58:58.605Z,93.80
2018-12-19T18:01:28.226Z,93.60
2018-12-19T18:03:57.356Z,93.80
2018-12-19T18:06:26.608Z,94.10
2018-12-19T18:08:55.716Z,94.20
2018-12-19T18:11:25.160Z,94.20
2018-12-19T18:13:54.814Z,93.90
2018-12-19T18:16:24.194Z,93.70
2018-12-19T18:18:53.531Z,94.00
2018-12-19T18:21:22.931Z,94.00
2018-12-19T18:23:52.457Z,93.60
2018-12-19T18:26:21.841Z,93.40
2018-12-19T18:28:51.853Z,93.60
2018-12-19T18:31:21.230Z,93.70
2018-12-19T18:33:50.657Z,93.70
2018-12-19T18:36:21.192Z,93.70
2018-12-19T18:38:50.841Z,93.70
2018-12-19T18:41:20.127Z,93.70
2018-12-19T18:43:49.857Z,93.90
2018-12-19T18:46:19.265Z,93.80
2018-12-19T18:48:48.815Z,94.20
2018-12-19T18:51:18.436Z,94.10
2018-12-19T18:53:48.014Z,94.10
2018-12-19T18:56:17.131Z,93.90
2018-12-19T18:58:47.091Z,94.10
2018-12-19T19:01:16.571Z,94.40
2018-12-19T19:03:45.835Z,94.40
2018-12-19T19:06:15.871Z,94.20
2018-12-19T19:08:45.038Z,94.40
2018-12-19T19:11:14.683Z,94.40
2018-12-19T19:13:43.976Z,94.20
2018-12-19T19:16:13.324Z,94.60
2018-12-19T19:18:42.484Z,94.40
2018-12-19T19:21:12.084Z,94.40
2018-12-19T19:23:41.528Z,94.50
2018-12-19T19:26:10.979Z,94.80
2018-12-19T19:28:40.363Z,94.70
2018-12-19T19:31:10.113Z,94.70
2018-12-19T19:33:39.757Z,94.90
2018-12-19T19:36:09.300Z,94.90
2018-12-19T19:38:38.794Z,94.60
2018-12-19T19:41:08.101Z,94.70
2018-12-19T19:43:37.284Z,94.80
2018-12-19T19:46:06.504Z,94.50
2018-12-19T19:48:35.761Z,94.60
2018-12-19T19:51:05.756Z,94.90
2018-12-19T19:53:36.450Z,94.70
2018-12-19T19:56:05.668Z,94.80
2018-12-19T19:58:35.832Z,94.80
2018-12-19T20:01:05.762Z,95.10
2018-12-19T20:03:34.977Z,94.80
2018-12-19T20:06:04.368Z,95.20
2018-12-19T20:08:33.882Z,95.00
2018-12-19T20:11:03.283Z,95.00
2018-12-19T20:13:33.621Z,94.90
2018-12-19T20:16:02.820Z,95.00
2018-12-19T20:18:32.643Z,95.10
2018-12-19T20:21:02.431Z,95.00
2018-12-19T20:23:31.723Z,95.10
2018-12-19T20:26:01.781Z,95.00
2018-12-19T20:28:31.116Z,95.00
2018-12-19T20:31:00.683Z,94.90
2018-12-19T20:33:30.243Z,94.90
2018-12-19T20:35:59.713Z,94.90
2018-12-19T20:38:29.022Z,94.80
2018-12-19T20:40:58.193Z,95.10
2018-12-19T20:43:27.399Z,94.90
2018-12-19T20:45:56.801Z,95.10
2018-12-19T20:48:26.730Z,95.10
2018-12-19T20:50:56.058Z,95.00
2018-12-19T20:53:25.618Z,95.20
2018-12-19T20:55:55.122Z,95.00
2018-12-19T20:58:24.446Z,95.00
2018-12-19T21:00:54.200Z,94.90
2018-12-19T21:03:23.382Z,94.80
2018-12-19T21:05:52.941Z,95.30
2018-12-19T21:08:22.197Z,95.20
2018-12-19T21:10:51.405Z,95.40
2018-12-19T21:13:21.047Z,95.50
2018-12-19T21:15:50.757Z,95.50
2018-12-19T21:18:25.995Z,95.30
2018-12-19T21:20:55.232Z,95.40
2018-12-19T21:23:24.514Z,95.30
2018-12-19T21:25:53.793Z,95.30
2018-12-19T21:28:23.769Z,95.30
2018-12-19T21:30:52.907Z,95.40
2018-12-19T21:33:22.585Z,95.50
2018-12-19T21:35:52.495Z,95.40
2018-12-19T21:38:21.951Z,95.50
2018-12-19T21:40:51.767Z,94.90
2018-12-19T21:43:21.354Z,94.90
2018-12-19T21:45:51.929Z,95.00
2018-12-19T21:48:21.518Z,95.20
2018-12-19T21:50:51.859Z,95.50
2018-12-19T21:53:21.624Z,94.90
2018-12-19T21:55:51.261Z,95.00
2018-12-19T21:58:23.552Z,95.10
2018-12-19T22:00:53.113Z,95.10
2018-12-19T22:03:22.786Z,94.90
2018-12-19T22:05:52.092Z,94.90
2018-12-19T22:08:21.658Z,95.40
2018-12-19T22:10:51.350Z,95.10
2018-12-19T22:40:16.817Z,95.20
2018-12-19T22:42:47.084Z,95.50
2018-12-19T22:45:16.426Z,95.70
2018-12-19T22:47:45.647Z,95.50
2018-12-19T22:50:15.187Z,95.50
2018-12-19T22:52:44.839Z,95.40
2018-12-19T22:55:14.369Z,95.60
2018-12-19T22:57:44.020Z,95.30
2018-12-19T23:00:16.871Z,95.40
2018-12-19T23:02:51.912Z,95.60
2018-12-19T23:05:26.366Z,95.40
2018-12-19T23:07:55.768Z,95.60
2018-12-19T23:10:25.181Z,95.40
2018-12-19T23:12:54.348Z,95.80
2018-12-19T23:15:24.814Z,95.70
2018-12-19T23:17:58.648Z,95.70
2018-12-19T23:20:28.327Z,95.70
2018-12-19T23:22:57.465Z,95.50
2018-12-19T23:25:26.960Z,95.40
2018-12-19T23:27:56.782Z,95.60
2018-12-19T23:30:27.398Z,95.50
2018-12-19T23:32:56.628Z,95.60
2018-12-19T23:35:26.182Z,95.60
2018-12-19T23:37:56.123Z,95.40
2018-12-19T23:40:25.665Z,95.30
2018-12-19T23:42:55.272Z,95.30
2018-12-19T23:45:24.705Z,95.60
2018-12-19T23:47:54.366Z,95.50
2018-12-19T23:50:25.677Z,95.40
2018-12-19T23:52:55.047Z,95.50
2018-12-19T23:55:24.506Z,95.60
2018-12-19T23:57:54.569Z,95.50
